Currently 55°F in De Luz, California, USA
55°F
59°F / 55°F
calm
0.00"
Wednesday, April 24, 2019 5:42 AM PDT

De Luz, California Weather Summary
Last 36 Hours

Temperature Winds Hourly Humidity Dewpoint
Time Report Norm Report Norm Max Gusts Precip. Rpt. Norm Rpt. Norm Pressure
1,3Wed 05:42 AM  55.0°F  53°F  calm  calm  none  0.00"  92%  81%  53°F  47°F  28.67"
Wed 05:00 AM  55.6°F  53°F  calm  calm  none  0.00"  92%  81%  53°F  48°F  28.65"
Wed 04:00 AM  56.2°F  54°F  calm  calm  none  0.00"  91%  81%  54°F  48°F  28.65"
Wed 03:00 AM  57.0°F  54°F  calm  calm  none  0.00"  88%  81%  53°F  48°F  28.65"
Wed 02:00 AM  57.5°F  54°F  calm  calm  none  0.00"  86%  81%  53°F  48°F  28.67"
Wed 01:00 AM  58.0°F  54°F  calm  calm  none  0.00"  80%  81%  52°F  48°F  28.66"
2Wed 12:00 AM  58.7°F  55°F  calm  calm  none  0.00"  78%  81%  52°F  49°F  28.66"
Tue 11:00 PM  57.3°F  55°F  calm  calm  none  0.00"  84%  81%  52°F  49°F  28.66"
Tue 10:00 PM  57.3°F  55°F  calm  calm  none  0.00"  91%  80%  55°F  49°F  28.66"
Tue 09:00 PM  57.5°F  56°F  calm  calm  none  0.00"  89%  78%  54°F  49°F  28.64"
Tue 08:00 PM  59.6°F  58°F  calm  1 mph  5 mph  0.00"  85%  74%  55°F  50°F  28.64"
Tue 07:00 PM  62.9°F  62°F  1 mph S  2 mph  11 mph  0.00"  79%  66%  56°F  50°F  28.62"
Tue 06:00 PM  66.8°F  65°F  2 mph SW  3 mph  8 mph  0.00"  72%  59%  57°F  50°F  28.61"
Tue 05:00 PM  71.5°F  68°F  2 mph S  3 mph  12 mph  0.00"  64%  54%  58°F  50°F  28.61"
Tue 04:00 PM  71.6°F  70°F  4 mph SW  3 mph  10 mph  0.00"  64%  50%  58°F  50°F  28.61"
Tue 03:00 PM  72.7°F  72°F  4 mph S  3 mph  12 mph  0.00"  62%  48%  58°F  50°F  28.62"
Tue 02:00 PM  74.0°F  72°F  4 mph S  3 mph  12 mph  0.00"  59%  48%  58°F  50°F  28.62"
Tue 01:00 PM  74.4°F  71°F  3 mph S  2 mph  9 mph  0.00"  57%  48%  58°F  50°F  28.63"
Tue 12:00 PM  72.0°F  70°F  2 mph S  2 mph  8 mph  0.00"  63%  50%  58°F  50°F  28.64"
Tue 11:00 AM  69.1°F  68°F  3 mph S  1 mph  7 mph  0.00"  66%  54%  57°F  50°F  28.66"
Tue 10:00 AM  74.4°F  64°F  calm  1 mph  2 mph  0.00"  54%  60%  56°F  50°F  28.65"
Tue 09:00 AM  68.3°F  61°F  calm  calm  none  0.00"  67%  69%  57°F  50°F  28.67"
Tue 08:00 AM  59.3°F  56°F  calm  calm  6 mph  0.00"  84%  77%  54°F  49°F  28.68"
Tue 07:00 AM  56.3°F  54°F  3 mph NE  calm  6 mph  0.00"  91%  80%  54°F  47°F  28.67"
Tue 06:00 AM  55.0°F  53°F  calm  calm  2 mph  0.00"  93%  80%  53°F  47°F  28.66"
Tue 05:00 AM  53.8°F  53°F  calm  calm  none  0.00"  93%  80%  52°F  47°F  28.66"
Tue 04:00 AM  53.1°F  54°F  calm  calm  none  0.00"  94%  80%  51°F  48°F  28.66"
Tue 03:00 AM  52.8°F  54°F  calm  calm  none  0.00"  94%  80%  51°F  48°F  28.66"
Tue 02:00 AM  53.1°F  54°F  calm  calm  none  0.00"  94%  80%  51°F  48°F  28.67"
Tue 01:00 AM  53.5°F  54°F  calm  calm  none  0.00"  94%  80%  52°F  48°F  28.67"
Tue 12:00 AM  53.6°F  55°F  calm  calm  none  0.00"  93%  79%  52°F  48°F  28.68"
Mon 11:00 PM  54.7°F  55°F  calm  calm  none  0.00"  92%  80%  52°F  48°F  28.68"
Mon 10:00 PM  54.8°F  55°F  calm  calm  none  0.00"  92%  79%  52°F  49°F  28.67"
Mon 09:00 PM  55.4°F  56°F  calm  calm  none  0.00"  88%  77%  52°F  49°F  28.67"
Mon 08:00 PM  57.5°F  58°F  calm  1 mph  2 mph  0.00"  84%  73%  53°F  49°F  28.64"
Mon 07:00 PM  59.9°F  62°F  calm  2 mph  6 mph  0.00"  80%  66%  53°F  50°F  28.63"
Mon 06:00 PM  62.6°F  65°F  2 mph SW  2 mph  11 mph  0.00"  74%  58%  54°F  50°F  28.66"

  1. Current weather data. No green row appears if the current weather data is also the high or low for the current day.
  2. High temperature for the current day.
  3. Low temperature for the current day.

The De Luz, California weather pages are a service of WeatherCurrents. De Luz is located west of the Temecula Valley and north of Fallbrook, on the Santa Rosa Plateau, in southwestern Riverside County, California.
Copyright ©2019  WeatherCurrents. All rights reserved. - Submit questions and comments - Privacy Policy

This page automatically refreshes every 10 minutes.